createdAt,value
2018-11-28T00:01:25.038Z,6.70
2018-11-28T00:06:23.945Z,6.70
2018-11-28T00:08:53.579Z,6.60
2018-11-28T00:11:22.683Z,6.60
2018-11-28T00:13:51.764Z,6.60
2018-11-28T00:16:21.214Z,6.50
2018-11-28T00:18:50.470Z,6.50
2018-11-28T00:23:48.639Z,5.80
2018-11-28T00:26:18.266Z,6.40
2018-11-28T00:28:47.617Z,6.40
2018-11-28T00:33:45.530Z,7.40
2018-11-28T00:38:44.025Z,6.50
2018-11-28T00:41:13.223Z,6.50
2018-11-28T00:43:42.540Z,6.50
2018-11-28T00:46:12.158Z,6.40
2018-11-28T00:48:41.234Z,6.40
2018-11-28T00:51:10.351Z,7.20
2018-11-28T00:53:39.766Z,6.50
2018-11-28T00:56:08.945Z,6.60
2018-11-28T00:58:37.979Z,6.70
2018-11-28T01:01:07.157Z,6.80
2018-11-28T01:03:36.292Z,6.90
2018-11-28T01:06:06.177Z,6.90
2018-11-28T01:08:35.356Z,7.00
2018-11-28T01:11:04.515Z,7.00
2018-11-28T01:16:03.303Z,7.20
2018-11-28T01:18:32.967Z,7.20
2018-11-28T01:21:02.499Z,7.30
2018-11-28T01:23:32.607Z,7.30
2018-11-28T01:28:30.721Z,7.30
2018-11-28T01:31:00.001Z,7.30
2018-11-28T01:33:29.130Z,7.30
2018-11-28T01:38:27.320Z,7.20
2018-11-28T01:40:56.463Z,7.20
2018-11-28T01:43:25.595Z,7.20
2018-11-28T01:45:55.207Z,7.10
2018-11-28T01:48:24.389Z,7.10
2018-11-28T01:50:53.578Z,7.10
2018-11-28T01:53:22.638Z,7.10
2018-11-28T01:55:51.869Z,7.00
2018-11-28T01:58:21.193Z,6.90
2018-11-28T02:00:50.571Z,7.50
2018-11-28T02:05:48.444Z,6.30
2018-11-28T02:08:18.176Z,7.00
2018-11-28T02:10:47.375Z,7.00
2018-11-28T02:18:14.352Z,6.90
2018-11-28T02:20:43.652Z,6.90
2018-11-28T02:23:13.216Z,6.90
2018-11-28T02:25:42.508Z,6.90
2018-11-28T02:28:11.819Z,6.80
2018-11-28T02:30:41.353Z,6.80
2018-11-28T02:33:10.548Z,6.70
2018-11-28T02:35:39.865Z,6.60
2018-11-28T02:40:37.841Z,6.70
2018-11-28T02:43:07.389Z,6.70
2018-11-28T02:53:03.188Z,6.80
2018-11-28T02:58:02.088Z,6.80
2018-11-28T03:00:31.349Z,6.70
2018-11-28T03:03:00.516Z,6.70
2018-11-28T03:05:29.604Z,6.70
2018-11-28T03:07:58.787Z,6.70
2018-11-28T03:10:27.980Z,6.90
2018-11-28T03:12:57.218Z,6.60
2018-11-28T03:17:58.869Z,6.70
2018-11-28T03:20:28.037Z,6.80
2018-11-28T03:22:57.250Z,6.70
2018-11-28T03:25:26.418Z,6.70
2018-11-28T03:27:55.454Z,6.70
2018-11-28T03:32:53.392Z,6.60
2018-11-28T03:35:22.634Z,6.50
2018-11-28T03:37:51.942Z,6.60
2018-11-28T03:40:21.030Z,6.50
2018-11-28T03:42:50.202Z,6.50
2018-11-28T03:47:48.058Z,6.40
2018-11-28T03:50:17.354Z,6.20
2018-11-28T03:52:46.674Z,6.30
2018-11-28T03:55:17.028Z,6.20
2018-11-28T04:00:18.569Z,6.00
2018-11-28T04:02:48.279Z,6.00
2018-11-28T04:07:46.585Z,5.80
2018-11-28T04:10:16.059Z,5.60
2018-11-28T04:12:45.984Z,5.50
2018-11-28T04:15:16.686Z,5.40
2018-11-28T04:17:45.918Z,5.30
2018-11-28T04:20:19.787Z,7.50
2018-11-28T04:22:48.987Z,5.10
2018-11-28T04:25:20.121Z,5.10
2018-11-28T04:30:21.018Z,5.30
2018-11-28T04:32:50.714Z,4.90
2018-11-28T04:35:19.820Z,4.90
2018-11-28T04:37:48.899Z,4.90
2018-11-28T04:40:19.004Z,4.90
2018-11-28T04:42:48.347Z,4.90
2018-11-28T04:47:47.127Z,4.80
2018-11-28T04:50:16.506Z,4.90
2018-11-28T04:52:46.375Z,5.00
2018-11-28T05:05:14.381Z,4.70
2018-11-28T05:07:45.379Z,4.50
2018-11-28T05:10:16.345Z,5.00
2018-11-28T05:12:45.783Z,4.60
2018-11-28T05:15:15.936Z,4.60
2018-11-28T05:17:47.838Z,1.90
2018-11-28T05:20:18.054Z,4.50
2018-11-28T05:25:20.658Z,4.90
2018-11-28T05:27:51.151Z,4.40
2018-11-28T05:30:21.299Z,4.80
2018-11-28T05:35:23.998Z,4.80
2018-11-28T05:40:23.702Z,4.90
2018-11-28T05:42:53.153Z,4.80
2018-11-28T05:50:21.720Z,4.90
2018-11-28T05:52:51.010Z,4.90
2018-11-28T05:57:50.550Z,4.80
2018-11-28T06:07:52.485Z,4.90
2018-11-28T06:12:51.598Z,4.80
2018-11-28T06:30:20.217Z,4.90
2018-11-28T06:35:18.056Z,4.90
2018-11-28T06:37:47.742Z,4.80
2018-11-28T06:42:48.816Z,3.30
2018-11-28T06:45:20.871Z,4.90
2018-11-28T06:55:21.317Z,5.00
2018-11-28T06:57:51.174Z,5.00
2018-11-28T07:00:22.110Z,5.00
2018-11-28T07:02:52.605Z,4.90
2018-11-28T07:12:49.263Z,4.90
2018-11-28T07:15:19.725Z,5.00
2018-11-28T07:20:24.416Z,5.00
2018-11-28T07:43:17.801Z,5.60
2018-11-28T07:48:20.628Z,6.20
2018-11-28T07:55:47.500Z,5.70
2018-11-28T08:00:47.503Z,5.80
2018-11-28T08:05:46.591Z,6.20
2018-11-28T08:08:16.192Z,6.00
2018-11-28T08:16:06.683Z,6.30
2018-11-28T08:24:14.279Z,6.50
2018-11-28T08:29:29.918Z,7.80
2018-11-28T08:32:00.692Z,6.90
2018-11-28T08:34:42.977Z,7.00
2018-11-28T08:37:15.731Z,7.00
2018-11-28T08:42:24.710Z,7.30
2018-11-28T08:44:55.419Z,7.50
2018-11-28T08:50:01.772Z,7.80
2018-11-28T08:55:05.965Z,7.90
2018-11-28T09:07:54.006Z,7.90
2018-11-28T09:10:24.301Z,7.90
2018-11-28T09:12:53.493Z,7.90
2018-11-28T09:15:27.825Z,8.40
2018-11-28T09:17:58.262Z,8.00
2018-11-28T09:20:28.341Z,8.10
2018-11-28T09:22:58.049Z,8.10
2018-11-28T09:25:27.754Z,8.10
2018-11-28T09:28:00.165Z,8.20
2018-11-28T09:30:30.103Z,8.20
2018-11-28T09:33:01.865Z,8.20
2018-11-28T09:35:31.222Z,8.30
2018-11-28T09:38:00.552Z,8.30
2018-11-28T09:43:01.180Z,8.10
2018-11-28T09:45:30.875Z,8.10
2018-11-28T09:48:00.119Z,8.00
2018-11-28T09:50:29.711Z,8.10
2018-11-28T09:52:58.886Z,8.10
2018-11-28T09:55:29.238Z,8.20
2018-11-28T09:57:58.842Z,8.50
2018-11-28T10:00:29.432Z,8.40
2018-11-28T10:02:59.594Z,8.40
2018-11-28T10:05:31.208Z,8.40
2018-11-28T10:08:00.672Z,8.50
2018-11-28T10:10:30.740Z,8.70
2018-11-28T10:15:35.261Z,8.60
2018-11-28T10:20:42.324Z,8.70
2018-11-28T10:23:11.331Z,8.70
2018-11-28T10:25:40.426Z,8.80
2018-11-28T10:30:39.798Z,8.90
2018-11-28T10:33:11.374Z,8.90
2018-11-28T10:35:42.179Z,8.90
2018-11-28T10:40:42.543Z,8.80
2018-11-28T10:43:14.747Z,8.80
2018-11-28T10:45:44.723Z,8.90
2018-11-28T10:50:44.173Z,8.90
2018-11-28T10:53:13.475Z,8.80
2018-11-28T11:00:46.153Z,8.90
2018-11-28T11:03:27.417Z,9.00
2018-11-28T11:06:08.556Z,9.10
2018-11-28T11:08:43.088Z,9.10
2018-11-28T11:11:17.709Z,8.50
2018-11-28T11:13:53.202Z,9.30
2018-11-28T11:16:37.975Z,9.40
2018-11-28T11:19:08.620Z,9.40
2018-11-28T11:21:38.516Z,9.60
2018-11-28T11:24:07.767Z,9.40
2018-11-28T11:26:37.014Z,9.40
2018-11-28T11:29:06.614Z,9.40
2018-11-28T11:31:47.064Z,9.60
2018-11-28T11:36:48.438Z,9.40
2018-11-28T11:39:20.714Z,9.30
2018-11-28T11:41:50.204Z,9.40
2018-11-28T11:44:19.600Z,9.40
2018-11-28T11:46:49.400Z,9.60
2018-11-28T11:49:18.990Z,9.70
2018-11-28T11:51:48.673Z,9.80
2018-11-28T11:54:18.481Z,9.90
2018-11-28T12:01:55.958Z,9.80
2018-11-28T12:15:05.461Z,9.70
2018-11-28T12:25:00.830Z,9.30
2018-11-28T12:27:30.931Z,9.60
2018-11-28T12:34:58.598Z,9.70
2018-11-28T12:37:28.094Z,9.70
2018-11-28T12:39:57.520Z,9.60
2018-11-28T12:42:26.960Z,11.30
2018-11-28T12:44:56.456Z,9.50
2018-11-28T12:50:10.021Z,9.60
2018-11-28T12:52:40.599Z,9.50
2018-11-28T12:55:10.039Z,9.50
2018-11-28T13:00:12.496Z,11.90
2018-11-28T13:02:41.869Z,9.50
2018-11-28T13:05:15.250Z,9.50
2018-11-28T13:07:44.498Z,9.40
2018-11-28T13:10:21.279Z,9.40
2018-11-28T13:15:20.460Z,9.30
2018-11-28T13:22:56.021Z,9.00
2018-11-28T13:25:30.092Z,9.20
2018-11-28T13:38:04.226Z,9.20
2018-11-28T13:40:33.611Z,9.90
2018-11-28T13:43:02.918Z,9.20
2018-11-28T13:45:36.495Z,9.30
2018-11-28T13:50:37.947Z,8.60
2018-11-28T13:53:12.158Z,8.80
2018-11-28T14:00:59.095Z,9.30
2018-11-28T14:03:28.418Z,9.10
2018-11-28T14:08:27.000Z,9.20
2018-11-28T14:13:26.400Z,9.20
2018-11-28T14:15:55.956Z,9.30
2018-11-28T14:18:27.625Z,9.30
2018-11-28T14:23:26.769Z,9.30
2018-11-28T14:25:56.269Z,9.20
2018-11-28T14:28:26.110Z,9.20
2018-11-28T14:30:55.518Z,9.10
2018-11-28T14:33:25.869Z,9.10
2018-11-28T14:35:55.220Z,9.10
2018-11-28T14:40:53.441Z,9.00
2018-11-28T14:45:51.906Z,8.90
2018-11-28T14:53:19.732Z,8.80
2018-11-28T15:00:48.600Z,8.60
2018-11-28T15:06:33.685Z,8.70
2018-11-28T15:09:23.979Z,8.70
2018-11-28T15:11:53.854Z,8.50
2018-11-28T15:14:25.565Z,8.60
2018-11-28T15:16:54.840Z,8.60
2018-11-28T15:19:24.536Z,8.60
2018-11-28T15:21:54.148Z,8.40
2018-11-28T15:24:23.449Z,8.50
2018-11-28T15:34:20.173Z,8.40
2018-11-28T15:36:49.611Z,8.40
2018-11-28T15:39:18.851Z,8.40
2018-11-28T15:41:48.598Z,8.30
2018-11-28T15:44:18.047Z,8.60
2018-11-28T15:49:21.553Z,8.30
2018-11-28T15:54:20.696Z,8.30
2018-11-28T16:01:52.074Z,8.10
2018-11-28T16:04:21.774Z,9.20
2018-11-28T16:06:51.862Z,8.00
2018-11-28T16:14:24.673Z,6.80
2018-11-28T16:21:52.419Z,7.70
2018-11-28T16:24:22.227Z,7.70
2018-11-28T16:31:50.162Z,7.00
2018-11-28T16:39:17.351Z,7.40
2018-11-28T16:44:15.644Z,7.30
2018-11-28T16:46:46.535Z,7.20
2018-11-28T16:56:45.579Z,7.10
2018-11-28T17:04:16.059Z,7.00
2018-11-28T17:06:45.351Z,7.00
2018-11-28T17:16:44.412Z,7.00
2018-11-28T17:19:14.122Z,7.00
2018-11-28T17:21:44.368Z,7.00
2018-11-28T17:29:12.730Z,7.20
2018-11-28T17:31:42.232Z,7.20
2018-11-28T17:39:12.638Z,7.40
2018-11-28T17:41:42.017Z,9.60
2018-11-28T17:44:11.955Z,7.50
2018-11-28T17:46:42.377Z,7.60
2018-11-28T17:49:12.594Z,7.50
2018-11-28T17:56:40.682Z,7.50
2018-11-28T18:04:09.689Z,7.40
2018-11-28T18:06:40.115Z,7.30
2018-11-28T18:09:11.991Z,7.40
2018-11-28T18:11:42.436Z,7.40
2018-11-28T18:16:57.955Z,7.40
2018-11-28T18:19:28.123Z,7.40
2018-11-28T18:21:57.940Z,8.00
2018-11-28T18:24:28.194Z,7.40
2018-11-28T18:29:27.741Z,8.00
2018-11-28T18:44:40.544Z,7.40
2018-11-28T18:47:13.166Z,7.40
2018-11-28T18:49:46.181Z,7.30
2018-11-28T18:52:17.209Z,7.10
2018-11-28T18:54:46.519Z,7.10
2018-11-28T18:57:19.081Z,7.00
2018-11-28T18:59:51.143Z,7.00
2018-11-28T19:07:22.979Z,6.80
2018-11-28T19:14:53.071Z,6.70
2018-11-28T19:20:03.284Z,6.60
2018-11-28T19:22:33.006Z,6.60
2018-11-28T19:25:02.309Z,6.60
2018-11-28T19:27:31.712Z,6.60
2018-11-28T19:37:31.873Z,6.70
2018-11-28T19:42:30.825Z,6.70
2018-11-28T19:49:59.705Z,6.70
2018-11-28T19:52:29.720Z,6.80
2018-11-28T19:54:59.097Z,6.70
2018-11-28T19:57:29.496Z,6.80
2018-11-28T20:02:28.325Z,8.80
2018-11-28T20:04:57.803Z,6.90
2018-11-28T20:07:28.552Z,6.90
2018-11-28T20:09:58.155Z,7.10
2018-11-28T20:12:28.576Z,7.10
2018-11-28T20:15:00.911Z,7.20
2018-11-28T20:17:30.355Z,7.70
2018-11-28T20:22:30.139Z,7.40
2018-11-28T20:24:59.829Z,7.40
2018-11-28T20:30:00.606Z,7.50
2018-11-28T20:35:05.759Z,7.50
2018-11-28T20:37:36.877Z,7.50
2018-11-28T20:40:15.964Z,7.50
2018-11-28T20:45:16.898Z,7.40
2018-11-28T20:47:46.222Z,7.40
2018-11-28T20:52:54.613Z,7.30
2018-11-28T20:55:22.462Z,7.30
2018-11-28T20:57:51.979Z,7.20
2018-11-28T21:00:22.821Z,6.90
2018-11-28T21:02:52.871Z,7.20
2018-11-28T21:05:22.560Z,7.10
2018-11-28T21:10:26.060Z,7.60
2018-11-28T21:12:55.333Z,7.00
2018-11-28T21:20:29.058Z,7.60
2018-11-28T21:23:00.588Z,6.90
2018-11-28T21:25:31.921Z,6.90
2018-11-28T21:28:01.512Z,6.90
2018-11-28T21:30:31.068Z,9.20
2018-11-28T21:33:00.896Z,7.90
2018-11-28T21:35:34.743Z,6.80
2018-11-28T21:38:04.536Z,6.70
2018-11-28T21:43:02.890Z,6.60
2018-11-28T21:45:32.294Z,6.90
2018-11-28T21:48:02.022Z,6.40
2018-11-28T21:50:31.511Z,6.60
2018-11-28T21:55:29.646Z,6.60
2018-11-28T21:57:59.007Z,6.60
2018-11-28T22:00:28.886Z,7.20
2018-11-28T22:02:58.167Z,6.60
2018-11-28T22:05:27.584Z,6.60
2018-11-28T22:07:56.838Z,6.10
2018-11-28T22:10:26.685Z,6.60
2018-11-28T22:15:24.868Z,6.60
2018-11-28T22:22:52.787Z,6.60
2018-11-28T22:27:52.392Z,7.00
2018-11-28T22:30:24.677Z,6.40
2018-11-28T22:32:53.958Z,6.30
2018-11-28T22:35:24.990Z,6.20
2018-11-28T22:37:54.823Z,6.10
2018-11-28T22:40:25.333Z,6.10
2018-11-28T22:45:24.653Z,6.10
2018-11-28T22:47:54.001Z,5.90
2018-11-28T22:50:23.692Z,6.10
2018-11-28T22:52:52.965Z,6.00
2018-11-28T22:55:22.173Z,6.10
2018-11-28T22:57:51.769Z,6.10
2018-11-28T23:02:59.598Z,6.20
2018-11-28T23:05:33.858Z,6.30
2018-11-28T23:10:32.351Z,6.30
2018-11-28T23:13:01.699Z,6.20
2018-11-28T23:15:31.335Z,6.20
2018-11-28T23:18:01.135Z,6.20
2018-11-28T23:20:30.446Z,6.20
2018-11-28T23:25:29.120Z,6.40
2018-11-28T23:27:58.309Z,6.50
2018-11-28T23:30:27.733Z,6.50
2018-11-28T23:32:57.207Z,6.60
2018-11-28T23:35:26.721Z,6.60
2018-11-28T23:40:26.446Z,6.70
2018-11-28T23:42:56.714Z,6.60
2018-11-28T23:47:55.148Z,6.70
2018-11-28T23:50:25.391Z,6.70
2018-11-28T23:52:55.415Z,6.70
2018-11-28T23:55:26.160Z,6.80
2018-11-28T23:57:55.558Z,6.80
